Terminal Aerodrome Forecast
Issued by NWS

Home | Current Version | Previous Version | Text Only | Print | Product List | Glossary Off
Versions: 1 2 3 4 5 6 7 8 9 10 11 12 13 14 15 16 17 18

405
FTUS43 KIWX 010525
TAFSBN
TAF
KSBN 010525Z 0106/0206 07010KT 4SM -DZ BR OVC007
      TEMPO 0106/0108 3SM -DZ BR OVC005
     FM010800 06009KT 2SM -DZ BR OVC003
     FM011500 02008KT 3SM BR OVC008
     FM011700 03009KT P6SM BKN020
     FM012200 03010KT 5SM -SHRA BR BKN015 OVC025=

USA.gov is the U.S. government's official web portal to all federal, state and local government web resources and services.